sensor_id;sensor_type;location;lat;lon;timestamp;P1;durP1;ratioP1;P2;durP2;ratioP2
22040;SDS011;11184;52.444;13.578;2023-02-18T00:01:59;13.30;;;3.45;;
22040;SDS011;11184;52.444;13.578;2023-02-18T00:04:44;10.23;;;2.42;;
22040;SDS011;11184;52.444;13.578;2023-02-18T00:07:32;14.73;;;2.60;;
22040;SDS011;11184;52.444;13.578;2023-02-18T00:10:17;16.02;;;2.30;;
22040;SDS011;11184;52.444;13.578;2023-02-18T00:13:01;9.20;;;2.20;;
22040;SDS011;11184;52.444;13.578;2023-02-18T00:15:46;10.75;;;3.13;;
22040;SDS011;11184;52.444;13.578;2023-02-18T00:18:31;8.35;;;2.70;;
22040;SDS011;11184;52.444;13.578;2023-02-18T00:21:15;13.20;;;2.60;;
22040;SDS011;11184;52.444;13.578;2023-02-18T00:24:00;11.23;;;2.85;;
22040;SDS011;11184;52.444;13.578;2023-02-18T00:26:48;13.27;;;3.28;;
22040;SDS011;11184;52.444;13.578;2023-02-18T00:29:33;15.32;;;2.30;;
22040;SDS011;11184;52.444;13.578;2023-02-18T00:32:17;15.98;;;2.92;;
22040;SDS011;11184;52.444;13.578;2023-02-18T00:35:02;7.47;;;2.20;;
22040;SDS011;11184;52.444;13.578;2023-02-18T00:37:49;22.63;;;4.40;;
22040;SDS011;11184;52.444;13.578;2023-02-18T00:40:37;18.25;;;2.85;;
22040;SDS011;11184;52.444;13.578;2023-02-18T00:43:22;12.60;;;3.83;;
22040;SDS011;11184;52.444;13.578;2023-02-18T00:46:06;19.35;;;3.78;;
22040;SDS011;11184;52.444;13.578;2023-02-18T00:48:51;12.10;;;3.20;;
22040;SDS011;11184;52.444;13.578;2023-02-18T00:51:36;16.27;;;2.53;;
22040;SDS011;11184;52.444;13.578;2023-02-18T00:54:21;18.95;;;2.80;;
22040;SDS011;11184;52.444;13.578;2023-02-18T00:57:06;12.00;;;2.95;;
22040;SDS011;11184;52.444;13.578;2023-02-18T00:59:50;13.95;;;2.13;;
22040;SDS011;11184;52.444;13.578;2023-02-18T01:02:36;20.20;;;3.05;;
22040;SDS011;11184;52.444;13.578;2023-02-18T01:05:21;15.23;;;2.75;;
22040;SDS011;11184;52.444;13.578;2023-02-18T01:08:06;13.70;;;3.70;;
22040;SDS011;11184;52.444;13.578;2023-02-18T01:10:52;13.93;;;3.13;;
22040;SDS011;11184;52.444;13.578;2023-02-18T01:13:37;14.30;;;3.42;;
22040;SDS011;11184;52.444;13.578;2023-02-18T01:16:22;12.32;;;2.47;;
22040;SDS011;11184;52.444;13.578;2023-02-18T01:19:07;9.82;;;2.13;;
22040;SDS011;11184;52.444;13.578;2023-02-18T01:21:52;10.75;;;2.53;;
22040;SDS011;11184;52.444;13.578;2023-02-18T01:24:36;13.88;;;3.45;;
22040;SDS011;11184;52.444;13.578;2023-02-18T01:27:21;15.20;;;3.00;;
22040;SDS011;11184;52.444;13.578;2023-02-18T01:30:06;12.57;;;3.33;;
22040;SDS011;11184;52.444;13.578;2023-02-18T01:32:52;7.32;;;1.35;;
22040;SDS011;11184;52.444;13.578;2023-02-18T01:35:37;14.73;;;2.22;;
22040;SDS011;11184;52.444;13.578;2023-02-18T01:38:22;9.30;;;2.63;;
22040;SDS011;11184;52.444;13.578;2023-02-18T01:41:07;12.70;;;2.80;;
22040;SDS011;11184;52.444;13.578;2023-02-18T01:44:11;12.15;;;2.40;;
22040;SDS011;11184;52.444;13.578;2023-02-18T01:46:56;15.52;;;2.28;;
22040;SDS011;11184;52.444;13.578;2023-02-18T01:49:40;14.80;;;2.63;;
22040;SDS011;11184;52.444;13.578;2023-02-18T01:52:28;8.45;;;2.63;;
22040;SDS011;11184;52.444;13.578;2023-02-18T01:55:15;8.50;;;3.30;;
22040;SDS011;11184;52.444;13.578;2023-02-18T01:58:00;16.73;;;2.92;;
22040;SDS011;11184;52.444;13.578;2023-02-18T02:00:45;15.85;;;3.60;;
22040;SDS011;11184;52.444;13.578;2023-02-18T02:03:30;12.48;;;1.85;;
22040;SDS011;11184;52.444;13.578;2023-02-18T02:06:16;12.55;;;2.55;;
22040;SDS011;11184;52.444;13.578;2023-02-18T02:09:02;15.38;;;3.25;;
22040;SDS011;11184;52.444;13.578;2023-02-18T02:24:11;21.17;;;3.45;;
22040;SDS011;11184;52.444;13.578;2023-02-18T02:30:30;13.13;;;3.50;;
22040;SDS011;11184;52.444;13.578;2023-02-18T02:33:32;9.23;;;2.92;;
22040;SDS011;11184;52.444;13.578;2023-02-18T02:36:30;9.38;;;2.45;;
22040;SDS011;11184;52.444;13.578;2023-02-18T02:42:39;8.25;;;2.50;;
22040;SDS011;11184;52.444;13.578;2023-02-18T02:48:26;17.75;;;3.50;;
22040;SDS011;11184;52.444;13.578;2023-02-18T02:51:22;11.75;;;2.38;;
22040;SDS011;11184;52.444;13.578;2023-02-18T02:54:13;7.10;;;1.83;;
22040;SDS011;11184;52.444;13.578;2023-02-18T02:57:36;8.55;;;2.88;;
22040;SDS011;11184;52.444;13.578;2023-02-18T03:00:12;12.30;;;2.78;;
22040;SDS011;11184;52.444;13.578;2023-02-18T03:03:08;7.93;;;2.17;;
22040;SDS011;11184;52.444;13.578;2023-02-18T03:08:51;3.63;;;1.38;;
22040;SDS011;11184;52.444;13.578;2023-02-18T03:20:18;6.25;;;1.92;;
22040;SDS011;11184;52.444;13.578;2023-02-18T03:23:08;14.57;;;3.05;;
22040;SDS011;11184;52.444;13.578;2023-02-18T03:25:55;9.32;;;2.30;;
22040;SDS011;11184;52.444;13.578;2023-02-18T03:28:40;10.73;;;1.88;;
22040;SDS011;11184;52.444;13.578;2023-02-18T03:31:26;11.77;;;2.08;;
22040;SDS011;11184;52.444;13.578;2023-02-18T03:34:12;10.48;;;2.67;;
22040;SDS011;11184;52.444;13.578;2023-02-18T03:36:59;5.10;;;1.20;;
22040;SDS011;11184;52.444;13.578;2023-02-18T03:39:45;21.73;;;2.88;;
22040;SDS011;11184;52.444;13.578;2023-02-18T03:42:30;14.20;;;2.67;;
22040;SDS011;11184;52.444;13.578;2023-02-18T03:45:15;7.95;;;1.70;;
22040;SDS011;11184;52.444;13.578;2023-02-18T03:47:59;7.78;;;2.22;;
22040;SDS011;11184;52.444;13.578;2023-02-18T03:50:44;9.07;;;2.03;;
22040;SDS011;11184;52.444;13.578;2023-02-18T03:53:28;10.68;;;1.80;;
22040;SDS011;11184;52.444;13.578;2023-02-18T03:56:13;13.15;;;2.22;;
22040;SDS011;11184;52.444;13.578;2023-02-18T03:58:58;8.48;;;1.83;;
22040;SDS011;11184;52.444;13.578;2023-02-18T04:01:42;8.80;;;1.98;;
22040;SDS011;11184;52.444;13.578;2023-02-18T04:04:27;11.18;;;3.13;;
22040;SDS011;11184;52.444;13.578;2023-02-18T04:07:12;18.75;;;3.75;;
22040;SDS011;11184;52.444;13.578;2023-02-18T04:09:57;9.63;;;2.15;;
22040;SDS011;11184;52.444;13.578;2023-02-18T04:12:41;5.95;;;1.35;;
22040;SDS011;11184;52.444;13.578;2023-02-18T04:15:26;11.13;;;1.95;;
22040;SDS011;11184;52.444;13.578;2023-02-18T04:18:11;5.10;;;1.40;;
22040;SDS011;11184;52.444;13.578;2023-02-18T04:20:55;6.35;;;1.50;;
22040;SDS011;11184;52.444;13.578;2023-02-18T04:23:40;8.27;;;2.88;;
22040;SDS011;11184;52.444;13.578;2023-02-18T04:26:25;5.38;;;1.27;;
22040;SDS011;11184;52.444;13.578;2023-02-18T04:29:10;8.30;;;2.33;;
22040;SDS011;11184;52.444;13.578;2023-02-18T04:31:54;8.00;;;1.60;;
22040;SDS011;11184;52.444;13.578;2023-02-18T04:34:39;5.65;;;1.20;;
22040;SDS011;11184;52.444;13.578;2023-02-18T04:37:23;15.73;;;2.58;;
22040;SDS011;11184;52.444;13.578;2023-02-18T04:40:08;12.55;;;1.73;;
22040;SDS011;11184;52.444;13.578;2023-02-18T04:42:53;5.03;;;1.52;;
22040;SDS011;11184;52.444;13.578;2023-02-18T04:45:38;7.78;;;2.42;;
22040;SDS011;11184;52.444;13.578;2023-02-18T04:48:22;14.32;;;2.70;;
22040;SDS011;11184;52.444;13.578;2023-02-18T04:51:07;11.80;;;1.73;;
22040;SDS011;11184;52.444;13.578;2023-02-18T04:53:51;4.18;;;1.70;;
22040;SDS011;11184;52.444;13.578;2023-02-18T04:56:36;12.07;;;1.65;;
22040;SDS011;11184;52.444;13.578;2023-02-18T04:59:20;6.93;;;1.45;;
22040;SDS011;11184;52.444;13.578;2023-02-18T05:02:05;6.82;;;1.40;;
22040;SDS011;11184;52.444;13.578;2023-02-18T05:04:50;14.93;;;2.20;;
22040;SDS011;11184;52.444;13.578;2023-02-18T05:07:34;9.00;;;2.58;;
22040;SDS011;11184;52.444;13.578;2023-02-18T05:10:19;12.15;;;1.95;;
22040;SDS011;11184;52.444;13.578;2023-02-18T05:13:04;4.13;;;1.35;;
22040;SDS011;11184;52.444;13.578;2023-02-18T05:15:49;11.52;;;1.35;;
22040;SDS011;11184;52.444;13.578;2023-02-18T05:18:33;12.48;;;3.25;;
22040;SDS011;11184;52.444;13.578;2023-02-18T05:21:18;8.27;;;2.05;;
22040;SDS011;11184;52.444;13.578;2023-02-18T05:24:03;6.22;;;1.75;;
22040;SDS011;11184;52.444;13.578;2023-02-18T05:26:47;3.25;;;2.08;;
22040;SDS011;11184;52.444;13.578;2023-02-18T05:29:32;7.28;;;2.33;;
22040;SDS011;11184;52.444;13.578;2023-02-18T05:32:16;7.40;;;1.60;;
22040;SDS011;11184;52.444;13.578;2023-02-18T05:35:01;3.42;;;1.08;;
22040;SDS011;11184;52.444;13.578;2023-02-18T05:37:46;4.18;;;1.25;;
22040;SDS011;11184;52.444;13.578;2023-02-18T05:40:30;8.30;;;1.83;;
22040;SDS011;11184;52.444;13.578;2023-02-18T05:43:15;7.80;;;1.92;;
22040;SDS011;11184;52.444;13.578;2023-02-18T05:45:59;2.88;;;1.65;;
22040;SDS011;11184;52.444;13.578;2023-02-18T05:48:44;7.68;;;1.88;;
22040;SDS011;11184;52.444;13.578;2023-02-18T05:51:28;3.38;;;1.35;;
22040;SDS011;11184;52.444;13.578;2023-02-18T05:54:13;6.65;;;1.80;;
22040;SDS011;11184;52.444;13.578;2023-02-18T05:56:58;5.57;;;1.45;;
22040;SDS011;11184;52.444;13.578;2023-02-18T05:59:42;4.85;;;1.35;;
22040;SDS011;11184;52.444;13.578;2023-02-18T06:02:27;6.43;;;1.95;;
22040;SDS011;11184;52.444;13.578;2023-02-18T06:05:11;9.40;;;1.50;;
22040;SDS011;11184;52.444;13.578;2023-02-18T06:07:56;11.70;;;2.78;;
22040;SDS011;11184;52.444;13.578;2023-02-18T06:10:41;8.43;;;1.40;;
22040;SDS011;11184;52.444;13.578;2023-02-18T06:13:26;7.18;;;1.98;;
22040;SDS011;11184;52.444;13.578;2023-02-18T06:16:10;6.28;;;1.90;;
22040;SDS011;11184;52.444;13.578;2023-02-18T06:18:55;8.23;;;1.67;;
22040;SDS011;11184;52.444;13.578;2023-02-18T06:21:40;6.35;;;2.15;;
22040;SDS011;11184;52.444;13.578;2023-02-18T06:24:24;7.65;;;1.85;;
22040;SDS011;11184;52.444;13.578;2023-02-18T06:27:09;8.38;;;1.38;;
22040;SDS011;11184;52.444;13.578;2023-02-18T06:29:53;5.57;;;1.63;;
22040;SDS011;11184;52.444;13.578;2023-02-18T06:32:38;15.00;;;1.60;;
22040;SDS011;11184;52.444;13.578;2023-02-18T06:35:22;5.80;;;1.58;;
22040;SDS011;11184;52.444;13.578;2023-02-18T06:38:07;3.70;;;1.25;;
22040;SDS011;11184;52.444;13.578;2023-02-18T06:40:52;10.00;;;1.67;;
22040;SDS011;11184;52.444;13.578;2023-02-18T06:43:37;10.88;;;1.83;;
22040;SDS011;11184;52.444;13.578;2023-02-18T06:46:21;3.92;;;1.40;;
22040;SDS011;11184;52.444;13.578;2023-02-18T06:49:06;10.07;;;1.67;;
22040;SDS011;11184;52.444;13.578;2023-02-18T06:51:50;4.93;;;1.48;;
22040;SDS011;11184;52.444;13.578;2023-02-18T06:54:35;6.40;;;1.60;;
22040;SDS011;11184;52.444;13.578;2023-02-18T06:57:20;6.07;;;1.63;;
22040;SDS011;11184;52.444;13.578;2023-02-18T07:00:05;12.93;;;3.25;;
22040;SDS011;11184;52.444;13.578;2023-02-18T07:02:50;5.97;;;1.33;;
22040;SDS011;11184;52.444;13.578;2023-02-18T07:05:34;11.55;;;1.95;;
22040;SDS011;11184;52.444;13.578;2023-02-18T07:08:19;10.68;;;1.48;;
22040;SDS011;11184;52.444;13.578;2023-02-18T07:11:04;6.95;;;1.48;;
22040;SDS011;11184;52.444;13.578;2023-02-18T07:13:50;9.93;;;1.38;;
22040;SDS011;11184;52.444;13.578;2023-02-18T07:16:34;7.63;;;1.30;;
22040;SDS011;11184;52.444;13.578;2023-02-18T07:19:19;7.53;;;1.73;;
22040;SDS011;11184;52.444;13.578;2023-02-18T07:22:03;8.65;;;1.55;;
22040;SDS011;11184;52.444;13.578;2023-02-18T07:24:51;8.15;;;1.60;;
22040;SDS011;11184;52.444;13.578;2023-02-18T07:27:36;4.50;;;1.63;;
22040;SDS011;11184;52.444;13.578;2023-02-18T07:30:21;4.40;;;1.15;;
22040;SDS011;11184;52.444;13.578;2023-02-18T07:33:05;5.20;;;1.08;;
22040;SDS011;11184;52.444;13.578;2023-02-18T07:35:53;4.72;;;1.20;;
22040;SDS011;11184;52.444;13.578;2023-02-18T07:38:38;4.20;;;1.17;;
22040;SDS011;11184;52.444;13.578;2023-02-18T07:41:23;1.92;;;0.82;;
22040;SDS011;11184;52.444;13.578;2023-02-18T07:44:07;4.55;;;1.05;;
22040;SDS011;11184;52.444;13.578;2023-02-18T07:46:52;2.22;;;0.95;;
22040;SDS011;11184;52.444;13.578;2023-02-18T07:49:36;4.28;;;1.10;;
22040;SDS011;11184;52.444;13.578;2023-02-18T07:52:21;2.65;;;0.93;;
22040;SDS011;11184;52.444;13.578;2023-02-18T07:55:06;3.20;;;0.90;;
22040;SDS011;11184;52.444;13.578;2023-02-18T07:57:51;10.82;;;1.40;;
22040;SDS011;11184;52.444;13.578;2023-02-18T08:00:43;4.40;;;1.00;;
22040;SDS011;11184;52.444;13.578;2023-02-18T08:03:30;5.40;;;1.40;;
22040;SDS011;11184;52.444;13.578;2023-02-18T08:06:19;6.93;;;0.95;;
22040;SDS011;11184;52.444;13.578;2023-02-18T08:09:04;8.40;;;1.92;;
22040;SDS011;11184;52.444;13.578;2023-02-18T08:11:49;2.78;;;0.98;;
22040;SDS011;11184;52.444;13.578;2023-02-18T08:14:33;4.63;;;0.80;;
22040;SDS011;11184;52.444;13.578;2023-02-18T08:17:18;8.48;;;1.80;;
22040;SDS011;11184;52.444;13.578;2023-02-18T08:20:03;4.65;;;1.25;;
22040;SDS011;11184;52.444;13.578;2023-02-18T08:22:48;6.93;;;1.50;;
22040;SDS011;11184;52.444;13.578;2023-02-18T08:25:33;6.88;;;1.52;;
22040;SDS011;11184;52.444;13.578;2023-02-18T08:28:18;6.15;;;0.80;;
22040;SDS011;11184;52.444;13.578;2023-02-18T08:31:02;5.18;;;0.90;;
22040;SDS011;11184;52.444;13.578;2023-02-18T08:33:48;4.85;;;1.55;;
22040;SDS011;11184;52.444;13.578;2023-02-18T08:36:33;3.72;;;0.88;;
22040;SDS011;11184;52.444;13.578;2023-02-18T08:39:19;4.35;;;1.02;;
22040;SDS011;11184;52.444;13.578;2023-02-18T08:42:04;1.67;;;1.00;;
22040;SDS011;11184;52.444;13.578;2023-02-18T08:44:49;4.18;;;1.67;;
22040;SDS011;11184;52.444;13.578;2023-02-18T08:47:33;7.07;;;1.40;;
22040;SDS011;11184;52.444;13.578;2023-02-18T08:50:18;5.30;;;1.83;;
22040;SDS011;11184;52.444;13.578;2023-02-18T08:53:04;7.57;;;1.40;;
22040;SDS011;11184;52.444;13.578;2023-02-18T08:55:48;5.78;;;1.58;;
22040;SDS011;11184;52.444;13.578;2023-02-18T08:58:33;3.97;;;1.42;;
22040;SDS011;11184;52.444;13.578;2023-02-18T09:01:20;6.25;;;1.40;;
22040;SDS011;11184;52.444;13.578;2023-02-18T09:04:04;6.30;;;1.58;;
22040;SDS011;11184;52.444;13.578;2023-02-18T09:06:49;5.97;;;1.80;;
22040;SDS011;11184;52.444;13.578;2023-02-18T09:09:33;7.57;;;1.42;;
22040;SDS011;11184;52.444;13.578;2023-02-18T09:12:18;5.40;;;1.17;;
22040;SDS011;11184;52.444;13.578;2023-02-18T09:15:03;4.45;;;0.80;;
22040;SDS011;11184;52.444;13.578;2023-02-18T09:17:48;4.70;;;0.90;;
22040;SDS011;11184;52.444;13.578;2023-02-18T09:20:32;8.73;;;3.17;;
22040;SDS011;11184;52.444;13.578;2023-02-18T09:23:17;5.40;;;2.08;;
22040;SDS011;11184;52.444;13.578;2023-02-18T09:26:04;12.38;;;2.60;;
22040;SDS011;11184;52.444;13.578;2023-02-18T09:28:50;5.55;;;2.63;;
22040;SDS011;11184;52.444;13.578;2023-02-18T09:31:35;4.80;;;2.40;;
22040;SDS011;11184;52.444;13.578;2023-02-18T09:34:22;8.60;;;3.75;;
22040;SDS011;11184;52.444;13.578;2023-02-18T09:37:06;6.35;;;2.17;;
22040;SDS011;11184;52.444;13.578;2023-02-18T09:39:51;5.93;;;3.00;;
22040;SDS011;11184;52.444;13.578;2023-02-18T09:42:36;8.35;;;2.33;;
22040;SDS011;11184;52.444;13.578;2023-02-18T09:45:20;7.57;;;2.10;;
22040;SDS011;11184;52.444;13.578;2023-02-18T09:48:05;5.07;;;1.65;;
22040;SDS011;11184;52.444;13.578;2023-02-18T09:50:50;8.13;;;2.33;;
22040;SDS011;11184;52.444;13.578;2023-02-18T09:53:35;2.35;;;1.00;;
22040;SDS011;11184;52.444;13.578;2023-02-18T09:56:27;10.82;;;2.95;;
22040;SDS011;11184;52.444;13.578;2023-02-18T09:59:17;6.30;;;2.10;;
22040;SDS011;11184;52.444;13.578;2023-02-18T10:02:02;9.02;;;1.85;;
22040;SDS011;11184;52.444;13.578;2023-02-18T10:04:47;6.68;;;3.00;;
22040;SDS011;11184;52.444;13.578;2023-02-18T10:07:34;5.90;;;2.47;;
22040;SDS011;11184;52.444;13.578;2023-02-18T10:10:22;6.78;;;2.70;;
22040;SDS011;11184;52.444;13.578;2023-02-18T10:13:15;3.90;;;1.42;;
22040;SDS011;11184;52.444;13.578;2023-02-18T10:16:01;7.10;;;1.92;;
22040;SDS011;11184;52.444;13.578;2023-02-18T10:18:47;10.25;;;1.73;;
22040;SDS011;11184;52.444;13.578;2023-02-18T10:21:32;13.13;;;2.85;;
22040;SDS011;11184;52.444;13.578;2023-02-18T10:24:26;4.32;;;2.35;;
22040;SDS011;11184;52.444;13.578;2023-02-18T10:27:28;5.00;;;2.10;;
22040;SDS011;11184;52.444;13.578;2023-02-18T10:30:20;10.43;;;2.90;;
22040;SDS011;11184;52.444;13.578;2023-02-18T10:33:26;14.27;;;4.82;;
22040;SDS011;11184;52.444;13.578;2023-02-18T10:36:17;9.00;;;3.50;;
22040;SDS011;11184;52.444;13.578;2023-02-18T10:45:17;4.25;;;2.05;;
22040;SDS011;11184;52.444;13.578;2023-02-18T10:50:51;8.27;;;2.20;;
22040;SDS011;11184;52.444;13.578;2023-02-18T10:53:38;13.93;;;3.38;;
22040;SDS011;11184;52.444;13.578;2023-02-18T10:56:34;10.20;;;3.67;;
22040;SDS011;11184;52.444;13.578;2023-02-18T10:59:23;5.07;;;1.92;;
22040;SDS011;11184;52.444;13.578;2023-02-18T11:02:13;5.65;;;1.90;;
22040;SDS011;11184;52.444;13.578;2023-02-18T11:04:59;5.40;;;1.55;;
22040;SDS011;11184;52.444;13.578;2023-02-18T11:07:50;3.38;;;2.15;;
22040;SDS011;11184;52.444;13.578;2023-02-18T11:10:38;5.97;;;2.75;;
22040;SDS011;11184;52.444;13.578;2023-02-18T11:13:27;7.68;;;2.60;;
22040;SDS011;11184;52.444;13.578;2023-02-18T11:16:12;8.98;;;2.70;;
22040;SDS011;11184;52.444;13.578;2023-02-18T11:18:57;4.25;;;2.00;;
22040;SDS011;11184;52.444;13.578;2023-02-18T11:21:46;11.43;;;2.53;;
22040;SDS011;11184;52.444;13.578;2023-02-18T11:24:31;4.03;;;2.15;;
22040;SDS011;11184;52.444;13.578;2023-02-18T11:27:17;7.47;;;2.25;;
22040;SDS011;11184;52.444;13.578;2023-02-18T11:30:05;4.07;;;1.85;;
22040;SDS011;11184;52.444;13.578;2023-02-18T11:32:55;6.05;;;2.03;;
22040;SDS011;11184;52.444;13.578;2023-02-18T11:35:40;4.88;;;1.85;;
22040;SDS011;11184;52.444;13.578;2023-02-18T11:41:38;8.95;;;2.63;;
22040;SDS011;11184;52.444;13.578;2023-02-18T11:44:32;6.68;;;2.42;;
22040;SDS011;11184;52.444;13.578;2023-02-18T11:47:32;4.07;;;1.85;;
22040;SDS011;11184;52.444;13.578;2023-02-18T11:50:20;3.33;;;1.60;;
22040;SDS011;11184;52.444;13.578;2023-02-18T11:56:17;3.47;;;1.40;;
22040;SDS011;11184;52.444;13.578;2023-02-18T11:59:03;4.00;;;1.13;;
22040;SDS011;11184;52.444;13.578;2023-02-18T12:01:53;1.88;;;1.08;;
22040;SDS011;11184;52.444;13.578;2023-02-18T12:04:40;3.28;;;1.13;;
22040;SDS011;11184;52.444;13.578;2023-02-18T12:10:18;4.15;;;1.70;;
22040;SDS011;11184;52.444;13.578;2023-02-18T12:13:19;2.05;;;1.20;;
22040;SDS011;11184;52.444;13.578;2023-02-18T12:16:23;1.83;;;1.55;;
22040;SDS011;11184;52.444;13.578;2023-02-18T12:19:18;2.30;;;1.85;;
22040;SDS011;11184;52.444;13.578;2023-02-18T12:22:17;2.55;;;1.30;;
22040;SDS011;11184;52.444;13.578;2023-02-18T12:25:08;1.73;;;1.63;;
22040;SDS011;11184;52.444;13.578;2023-02-18T12:42:22;2.47;;;2.22;;
22040;SDS011;11184;52.444;13.578;2023-02-18T12:45:19;2.58;;;2.28;;
22040;SDS011;11184;52.444;13.578;2023-02-18T12:48:31;3.67;;;3.00;;
22040;SDS011;11184;52.444;13.578;2023-02-18T12:51:22;4.43;;;4.03;;
22040;SDS011;11184;52.444;13.578;2023-02-18T12:54:17;4.50;;;3.38;;
22040;SDS011;11184;52.444;13.578;2023-02-18T13:00:51;5.20;;;3.67;;
22040;SDS011;11184;52.444;13.578;2023-02-18T13:06:09;4.72;;;3.42;;
22040;SDS011;11184;52.444;13.578;2023-02-18T13:11:51;3.75;;;2.40;;
22040;SDS011;11184;52.444;13.578;2023-02-18T13:14:45;2.95;;;2.50;;
22040;SDS011;11184;52.444;13.578;2023-02-18T13:17:31;3.45;;;3.15;;
22040;SDS011;11184;52.444;13.578;2023-02-18T13:20:19;3.00;;;2.67;;
22040;SDS011;11184;52.444;13.578;2023-02-18T13:23:05;3.78;;;2.25;;
22040;SDS011;11184;52.444;13.578;2023-02-18T13:25:54;3.92;;;2.55;;
22040;SDS011;11184;52.444;13.578;2023-02-18T13:40:03;1.75;;;1.63;;
22040;SDS011;11184;52.444;13.578;2023-02-18T13:42:51;1.80;;;1.70;;
22040;SDS011;11184;52.444;13.578;2023-02-18T13:45:36;2.88;;;1.40;;
22040;SDS011;11184;52.444;13.578;2023-02-18T13:48:26;1.80;;;1.70;;
22040;SDS011;11184;52.444;13.578;2023-02-18T13:51:16;1.70;;;1.60;;
22040;SDS011;11184;52.444;13.578;2023-02-18T13:54:03;2.17;;;1.98;;
22040;SDS011;11184;52.444;13.578;2023-02-18T13:56:49;2.00;;;1.60;;
22040;SDS011;11184;52.444;13.578;2023-02-18T13:59:42;2.38;;;2.10;;
22040;SDS011;11184;52.444;13.578;2023-02-18T14:02:28;11.02;;;3.15;;
22040;SDS011;11184;52.444;13.578;2023-02-18T14:05:15;2.30;;;2.10;;
22040;SDS011;11184;52.444;13.578;2023-02-18T14:08:13;2.03;;;1.90;;
22040;SDS011;11184;52.444;13.578;2023-02-18T14:20:21;2.25;;;2.05;;
22040;SDS011;11184;52.444;13.578;2023-02-18T14:23:10;2.92;;;2.67;;
22040;SDS011;11184;52.444;13.578;2023-02-18T14:26:04;3.05;;;2.80;;
22040;SDS011;11184;52.444;13.578;2023-02-18T14:28:51;3.22;;;2.92;;
22040;SDS011;11184;52.444;13.578;2023-02-18T14:34:29;2.90;;;2.70;;
22040;SDS011;11184;52.444;13.578;2023-02-18T14:37:23;2.55;;;2.35;;
22040;SDS011;11184;52.444;13.578;2023-02-18T14:40:15;2.72;;;2.50;;
22040;SDS011;11184;52.444;13.578;2023-02-18T14:45:59;2.75;;;2.17;;
22040;SDS011;11184;52.444;13.578;2023-02-18T14:48:53;4.80;;;3.13;;
22040;SDS011;11184;52.444;13.578;2023-02-18T14:51:40;2.35;;;2.15;;
22040;SDS011;11184;52.444;13.578;2023-02-18T14:54:26;2.13;;;1.60;;
22040;SDS011;11184;52.444;13.578;2023-02-18T14:57:16;1.98;;;1.85;;
22040;SDS011;11184;52.444;13.578;2023-02-18T15:00:03;1.90;;;1.58;;
22040;SDS011;11184;52.444;13.578;2023-02-18T15:02:52;2.03;;;1.92;;
22040;SDS011;11184;52.444;13.578;2023-02-18T15:05:37;2.05;;;1.83;;
22040;SDS011;11184;52.444;13.578;2023-02-18T15:08:23;2.05;;;1.85;;
22040;SDS011;11184;52.444;13.578;2023-02-18T15:11:09;4.22;;;1.58;;
22040;SDS011;11184;52.444;13.578;2023-02-18T15:13:55;3.67;;;1.45;;
22040;SDS011;11184;52.444;13.578;2023-02-18T15:16:39;1.45;;;1.35;;
22040;SDS011;11184;52.444;13.578;2023-02-18T15:19:25;1.75;;;1.50;;
22040;SDS011;11184;52.444;13.578;2023-02-18T15:22:13;1.95;;;1.77;;
22040;SDS011;11184;52.444;13.578;2023-02-18T15:24:59;2.08;;;1.40;;
22040;SDS011;11184;52.444;13.578;2023-02-18T15:27:43;2.65;;;1.48;;
22040;SDS011;11184;52.444;13.578;2023-02-18T15:30:29;2.15;;;1.25;;
22040;SDS011;11184;52.444;13.578;2023-02-18T15:33:14;2.20;;;1.63;;
22040;SDS011;11184;52.444;13.578;2023-02-18T15:36:04;2.10;;;1.27;;
22040;SDS011;11184;52.444;13.578;2023-02-18T15:38:49;1.10;;;1.00;;
22040;SDS011;11184;52.444;13.578;2023-02-18T15:41:34;1.17;;;0.82;;
22040;SDS011;11184;52.444;13.578;2023-02-18T15:44:21;0.93;;;0.47;;
22040;SDS011;11184;52.444;13.578;2023-02-18T15:47:07;1.50;;;0.80;;
22040;SDS011;11184;52.444;13.578;2023-02-18T15:49:53;0.52;;;0.52;;
22040;SDS011;11184;52.444;13.578;2023-02-18T15:52:40;0.85;;;0.80;;
22040;SDS011;11184;52.444;13.578;2023-02-18T15:55:38;0.50;;;0.45;;
22040;SDS011;11184;52.444;13.578;2023-02-18T16:01:22;0.73;;;0.68;;
22040;SDS011;11184;52.444;13.578;2023-02-18T16:04:10;0.60;;;0.60;;
22040;SDS011;11184;52.444;13.578;2023-02-18T16:06:56;1.08;;;0.50;;
22040;SDS011;11184;52.444;13.578;2023-02-18T16:09:44;1.60;;;0.73;;
22040;SDS011;11184;52.444;13.578;2023-02-18T16:12:30;0.40;;;0.40;;
22040;SDS011;11184;52.444;13.578;2023-02-18T16:15:19;1.02;;;0.50;;
22040;SDS011;11184;52.444;13.578;2023-02-18T16:18:05;1.50;;;0.93;;
22040;SDS011;11184;52.444;13.578;2023-02-18T16:21:21;1.40;;;0.40;;
22040;SDS011;11184;52.444;13.578;2023-02-18T16:23:59;1.58;;;0.80;;
22040;SDS011;11184;52.444;13.578;2023-02-18T16:26:44;1.17;;;0.55;;
22040;SDS011;11184;52.444;13.578;2023-02-18T16:29:33;0.70;;;0.70;;
22040;SDS011;11184;52.444;13.578;2023-02-18T16:32:19;1.90;;;0.80;;
22040;SDS011;11184;52.444;13.578;2023-02-18T16:35:05;0.73;;;0.60;;
22040;SDS011;11184;52.444;13.578;2023-02-18T16:37:51;1.52;;;0.80;;
22040;SDS011;11184;52.444;13.578;2023-02-18T16:40:37;2.15;;;1.05;;
22040;SDS011;11184;52.444;13.578;2023-02-18T16:43:25;2.05;;;1.27;;
22040;SDS011;11184;52.444;13.578;2023-02-18T16:46:15;2.05;;;0.82;;
22040;SDS011;11184;52.444;13.578;2023-02-18T16:49:00;1.75;;;1.15;;
22040;SDS011;11184;52.444;13.578;2023-02-18T16:51:45;2.10;;;1.08;;
22040;SDS011;11184;52.444;13.578;2023-02-18T16:54:30;2.15;;;1.10;;
22040;SDS011;11184;52.444;13.578;2023-02-18T16:57:15;2.83;;;0.90;;
22040;SDS011;11184;52.444;13.578;2023-02-18T16:59:59;2.47;;;1.20;;
22040;SDS011;11184;52.444;13.578;2023-02-18T17:02:45;3.40;;;1.38;;
22040;SDS011;11184;52.444;13.578;2023-02-18T17:05:31;3.00;;;1.40;;
22040;SDS011;11184;52.444;13.578;2023-02-18T17:08:23;2.10;;;1.30;;
22040;SDS011;11184;52.444;13.578;2023-02-18T17:11:10;2.28;;;1.60;;
22040;SDS011;11184;52.444;13.578;2023-02-18T17:13:58;2.10;;;1.90;;
22040;SDS011;11184;52.444;13.578;2023-02-18T17:16:47;2.20;;;1.50;;
22040;SDS011;11184;52.444;13.578;2023-02-18T17:19:32;1.85;;;1.70;;
22040;SDS011;11184;52.444;13.578;2023-02-18T17:22:16;1.95;;;1.73;;
22040;SDS011;11184;52.444;13.578;2023-02-18T17:25:02;2.17;;;1.50;;
22040;SDS011;11184;52.444;13.578;2023-02-18T17:27:49;1.02;;;1.00;;
22040;SDS011;11184;52.444;13.578;2023-02-18T17:30:34;1.95;;;1.50;;
22040;SDS011;11184;52.444;13.578;2023-02-18T17:33:20;1.60;;;1.48;;
22040;SDS011;11184;52.444;13.578;2023-02-18T17:36:04;2.03;;;1.35;;
22040;SDS011;11184;52.444;13.578;2023-02-18T17:38:49;1.25;;;1.05;;
22040;SDS011;11184;52.444;13.578;2023-02-18T17:41:34;1.65;;;1.10;;
22040;SDS011;11184;52.444;13.578;2023-02-18T17:44:20;1.75;;;1.30;;
22040;SDS011;11184;52.444;13.578;2023-02-18T17:47:04;2.13;;;1.67;;
22040;SDS011;11184;52.444;13.578;2023-02-18T17:49:49;1.65;;;1.52;;
22040;SDS011;11184;52.444;13.578;2023-02-18T17:52:34;2.58;;;2.15;;
22040;SDS011;11184;52.444;13.578;2023-02-18T17:55:22;2.17;;;1.30;;
22040;SDS011;11184;52.444;13.578;2023-02-18T17:58:08;1.92;;;1.58;;
22040;SDS011;11184;52.444;13.578;2023-02-18T18:00:54;1.50;;;1.40;;
22040;SDS011;11184;52.444;13.578;2023-02-18T18:03:39;2.42;;;2.22;;
22040;SDS011;11184;52.444;13.578;2023-02-18T18:06:23;5.50;;;3.80;;
22040;SDS011;11184;52.444;13.578;2023-02-18T18:09:08;3.65;;;2.80;;
22040;SDS011;11184;52.444;13.578;2023-02-18T18:11:53;2.10;;;2.00;;